createdAt,value
2023-02-28T00:01:46.000Z,6.5
2023-02-28T00:05:14.000Z,6.4
2023-02-28T00:08:42.000Z,6
2023-02-28T00:12:10.000Z,8.1
2023-02-28T00:15:38.000Z,9
2023-02-28T00:19:06.000Z,7
2023-02-28T00:22:34.000Z,6.1
2023-02-28T00:26:02.000Z,6.2
2023-02-28T00:29:29.000Z,5.3
2023-02-28T00:32:58.000Z,7.5
2023-02-28T00:36:26.000Z,4.7
2023-02-28T00:39:15.000Z,5.7
2023-02-28T00:42:43.000Z,6.2
2023-02-28T00:46:10.000Z,5.1
2023-02-28T00:49:39.000Z,6.5
2023-02-28T00:53:07.000Z,4.5
2023-02-28T00:56:34.000Z,5.9
2023-02-28T01:00:02.000Z,4.2
2023-02-28T01:03:30.000Z,4.8
2023-02-28T01:06:58.000Z,5
2023-02-28T01:10:26.000Z,4.7
2023-02-28T01:13:54.000Z,6.1
2023-02-28T01:16:44.000Z,5.1
2023-02-28T01:20:12.000Z,5.2
2023-02-28T01:23:40.000Z,5.4
2023-02-28T01:27:07.000Z,4.5
2023-02-28T01:30:35.000Z,5.1
2023-02-28T01:34:03.000Z,5.7
2023-02-28T01:37:31.000Z,4.1
2023-02-28T01:40:59.000Z,4.7
2023-02-28T01:44:27.000Z,4.6
2023-02-28T01:47:56.000Z,6.2
2023-02-28T01:51:24.000Z,5
2023-02-28T01:54:13.000Z,4.8
2023-02-28T01:57:41.000Z,5
2023-02-28T02:01:09.000Z,5
2023-02-28T02:04:37.000Z,5.4
2023-02-28T02:08:05.000Z,5.8
2023-02-28T02:11:32.000Z,6.5
2023-02-28T02:15:00.000Z,8.2
2023-02-28T02:18:28.000Z,8
2023-02-28T02:21:56.000Z,7.2
2023-02-28T02:25:24.000Z,7
2023-02-28T02:28:52.000Z,5.5
2023-02-28T02:31:42.000Z,6.8
2023-02-28T02:35:10.000Z,5.2
2023-02-28T02:38:38.000Z,7.1
2023-02-28T02:42:06.000Z,7.8
2023-02-28T02:45:34.000Z,6.5
2023-02-28T02:49:01.000Z,6.9
2023-02-28T02:52:29.000Z,6.2
2023-02-28T02:55:57.000Z,5.5
2023-02-28T02:59:25.000Z,10.3
2023-02-28T03:02:53.000Z,7.4
2023-02-28T03:06:21.000Z,13.2
2023-02-28T03:12:40.000Z,9.9
2023-02-28T03:16:08.000Z,8.6
2023-02-28T03:19:36.000Z,8.9
2023-02-28T03:23:04.000Z,8.2
2023-02-28T03:26:32.000Z,7.4
2023-02-28T03:30:00.000Z,7.7
2023-02-28T03:33:28.000Z,10.1
2023-02-28T03:36:57.000Z,10
2023-02-28T03:40:25.000Z,26.2
2023-02-28T03:43:52.000Z,10.1
2023-02-28T03:47:20.000Z,13.5
2023-02-28T03:53:35.000Z,19.5
2023-02-28T03:57:03.000Z,13.7
2023-02-28T04:00:31.000Z,13.6
2023-02-28T04:03:59.000Z,19.9
2023-02-28T04:07:27.000Z,17.9
2023-02-28T04:10:54.000Z,16.2
2023-02-28T04:14:22.000Z,13.2
2023-02-28T04:17:50.000Z,15.4
2023-02-28T04:21:18.000Z,18.2
2023-02-28T04:26:54.000Z,19.2
2023-02-28T04:30:22.000Z,18.2
2023-02-28T04:33:06.000Z,20.6
2023-02-28T04:36:34.000Z,17.8
2023-02-28T04:40:02.000Z,16.8
2023-02-28T04:43:30.000Z,16.4
2023-02-28T04:46:58.000Z,14.5
2023-02-28T04:50:26.000Z,14.9
2023-02-28T04:53:54.000Z,13.7
2023-02-28T04:57:22.000Z,12.8
2023-02-28T05:00:50.000Z,13.5
2023-02-28T05:04:18.000Z,14.1
2023-02-28T05:07:46.000Z,11.9
2023-02-28T05:10:35.000Z,13.4
2023-02-28T05:14:03.000Z,11.5
2023-02-28T05:17:31.000Z,13.5
2023-02-28T05:20:59.000Z,10.6
2023-02-28T05:24:27.000Z,9.9
2023-02-28T05:27:55.000Z,10.5
2023-02-28T05:31:23.000Z,13.1
2023-02-28T05:34:51.000Z,14.3
2023-02-28T05:38:19.000Z,13.8
2023-02-28T05:41:47.000Z,13
2023-02-28T05:45:15.000Z,13.4
2023-02-28T05:48:04.000Z,10.9
2023-02-28T05:51:32.000Z,11.3
2023-02-28T05:55:00.000Z,12.5
2023-02-28T05:58:28.000Z,13
2023-02-28T06:01:56.000Z,14.9
2023-02-28T06:05:24.000Z,15.1
2023-02-28T06:08:52.000Z,16.3
2023-02-28T06:12:20.000Z,21
2023-02-28T06:15:48.000Z,18.3
2023-02-28T06:19:16.000Z,15.7
2023-02-28T06:22:43.000Z,21.6
2023-02-28T06:25:32.000Z,17
2023-02-28T06:29:00.000Z,17.6
2023-02-28T06:32:28.000Z,17
2023-02-28T06:35:56.000Z,15
2023-02-28T06:39:24.000Z,14.6
2023-02-28T06:42:52.000Z,14.5
2023-02-28T06:46:20.000Z,13
2023-02-28T06:49:48.000Z,17
2023-02-28T06:53:16.000Z,17
2023-02-28T06:56:44.000Z,14.2
2023-02-28T07:00:12.000Z,16.2
2023-02-28T07:03:01.000Z,15.2
2023-02-28T07:06:29.000Z,14.5
2023-02-28T07:09:57.000Z,17.5
2023-02-28T07:13:25.000Z,13.4
2023-02-28T07:16:53.000Z,12.6
2023-02-28T07:20:21.000Z,13.1
2023-02-28T07:23:49.000Z,12.4
2023-02-28T07:27:17.000Z,10.5
2023-02-28T07:30:45.000Z,11.6
2023-02-28T07:34:13.000Z,12.5
2023-02-28T07:37:41.000Z,12.4
2023-02-28T07:40:30.000Z,11.9
2023-02-28T07:43:58.000Z,11.3
2023-02-28T07:47:26.000Z,11.3
2023-02-28T07:50:54.000Z,10.8
2023-02-28T07:54:22.000Z,13.1
2023-02-28T07:57:52.000Z,9.4
2023-02-28T08:01:20.000Z,11.1
2023-02-28T08:04:49.000Z,7.3
2023-02-28T08:08:17.000Z,9.8
2023-02-28T08:11:45.000Z,9.6
2023-02-28T08:15:13.000Z,8.6
2023-02-28T08:18:02.000Z,11.3
2023-02-28T08:21:30.000Z,4.4
2023-02-28T08:24:58.000Z,8
2023-02-28T08:28:26.000Z,8.6
2023-02-28T08:31:55.000Z,8.2
2023-02-28T08:35:24.000Z,3.3
2023-02-28T08:38:55.000Z,5.7
2023-02-28T08:42:27.000Z,7.8
2023-02-28T08:46:00.000Z,9.3
2023-02-28T08:49:33.000Z,6.2
2023-02-28T08:53:07.000Z,7.5
2023-02-28T08:55:58.000Z,8.8
2023-02-28T08:59:31.000Z,10.6
2023-02-28T09:03:04.000Z,11.5
2023-02-28T09:06:36.000Z,8.8
2023-02-28T09:10:09.000Z,10.3
2023-02-28T09:13:42.000Z,11
2023-02-28T09:17:14.000Z,7.9
2023-02-28T09:20:47.000Z,5.6
2023-02-28T09:24:20.000Z,6.9
2023-02-28T09:27:52.000Z,10.1
2023-02-28T09:31:25.000Z,11.7
2023-02-28T09:34:16.000Z,7.9
2023-02-28T09:37:49.000Z,14.2
2023-02-28T09:41:22.000Z,12.5
2023-02-28T09:44:54.000Z,6.1
2023-02-28T09:48:27.000Z,10.3
2023-02-28T09:52:00.000Z,9.7
2023-02-28T09:55:32.000Z,9.4
2023-02-28T09:59:12.000Z,14.8
2023-02-28T10:02:44.000Z,10.3
2023-02-28T10:06:17.000Z,5.9
2023-02-28T10:09:50.000Z,9.8
2023-02-28T10:12:41.000Z,11.6
2023-02-28T10:16:14.000Z,9.5
2023-02-28T10:19:54.000Z,10.8
2023-02-28T10:23:26.000Z,7.3
2023-02-28T10:27:01.000Z,10.2
2023-02-28T10:30:33.000Z,9.6
2023-02-28T10:34:06.000Z,9.7
2023-02-28T10:37:39.000Z,8.7
2023-02-28T10:41:11.000Z,6.3
2023-02-28T10:44:44.000Z,9.1
2023-02-28T10:48:17.000Z,9.8
2023-02-28T10:51:08.000Z,7.6
2023-02-28T10:54:41.000Z,11.9
2023-02-28T10:58:13.000Z,7.5
2023-02-28T11:01:46.000Z,11.5
2023-02-28T11:05:19.000Z,8.3
2023-02-28T11:08:52.000Z,3.9
2023-02-28T11:12:24.000Z,10.9
2023-02-28T11:15:59.000Z,10.9
2023-02-28T11:19:32.000Z,9.2
2023-02-28T11:23:04.000Z,11.2
2023-02-28T11:26:37.000Z,8.9
2023-02-28T11:29:28.000Z,8.8
2023-02-28T11:33:01.000Z,9
2023-02-28T11:36:34.000Z,11
2023-02-28T11:40:06.000Z,11.3
2023-02-28T11:43:40.000Z,10.8
2023-02-28T11:47:12.000Z,8.2
2023-02-28T11:50:45.000Z,9.1
2023-02-28T11:54:18.000Z,11.3
2023-02-28T11:57:50.000Z,11.1
2023-02-28T12:01:23.000Z,9.1
2023-02-28T12:04:57.000Z,10.4
2023-02-28T12:07:48.000Z,9.8
2023-02-28T12:11:20.000Z,10.8
2023-02-28T12:14:54.000Z,7.8
2023-02-28T12:18:26.000Z,10
2023-02-28T12:21:59.000Z,11.4
2023-02-28T12:25:31.000Z,9
2023-02-28T12:29:04.000Z,10.1
2023-02-28T12:32:37.000Z,10.7
2023-02-28T12:36:09.000Z,10
2023-02-28T12:39:42.000Z,8.8
2023-02-28T12:43:16.000Z,10.1
2023-02-28T12:46:07.000Z,10.4
2023-02-28T12:49:40.000Z,5.9
2023-02-28T12:53:13.000Z,9.3
2023-02-28T12:56:46.000Z,10.5
2023-02-28T13:00:18.000Z,9.4
2023-02-28T13:03:51.000Z,11.8
2023-02-28T13:07:24.000Z,11.8
2023-02-28T13:10:56.000Z,11.3
2023-02-28T13:14:38.000Z,9.9
2023-02-28T13:18:11.000Z,11.5
2023-02-28T13:21:43.000Z,11.2
2023-02-28T13:24:35.000Z,11.4
2023-02-28T13:28:07.000Z,11.3
2023-02-28T13:31:40.000Z,5.9
2023-02-28T13:35:13.000Z,9.3
2023-02-28T13:38:46.000Z,11.9
2023-02-28T13:42:18.000Z,10.5
2023-02-28T13:45:51.000Z,10.7
2023-02-28T13:49:24.000Z,11.7
2023-02-28T13:52:57.000Z,11.3
2023-02-28T13:56:29.000Z,8.9
2023-02-28T14:00:02.000Z,9.4
2023-02-28T14:02:53.000Z,9.8
2023-02-28T14:06:26.000Z,12.6
2023-02-28T14:09:59.000Z,9.3
2023-02-28T14:13:31.000Z,11.1
2023-02-28T14:17:04.000Z,9.6
2023-02-28T14:20:37.000Z,10.4
2023-02-28T14:24:09.000Z,11.4
2023-02-28T14:27:42.000Z,10.1
2023-02-28T14:31:15.000Z,8.3
2023-02-28T14:34:47.000Z,9.4
2023-02-28T14:38:20.000Z,7.8
2023-02-28T14:41:11.000Z,12.1
2023-02-28T14:44:44.000Z,9.9
2023-02-28T14:48:16.000Z,11.1
2023-02-28T14:51:51.000Z,11.7
2023-02-28T14:55:24.000Z,8.2
2023-02-28T14:58:56.000Z,8.9
2023-02-28T15:02:29.000Z,11.8
2023-02-28T15:06:02.000Z,9.2
2023-02-28T15:09:34.000Z,12.4
2023-02-28T15:13:07.000Z,10.3
2023-02-28T15:16:39.000Z,11.3
2023-02-28T15:19:31.000Z,10
2023-02-28T15:23:03.000Z,12.7
2023-02-28T15:26:36.000Z,11.2
2023-02-28T15:30:09.000Z,12.5
2023-02-28T15:33:54.000Z,11.3
2023-02-28T15:37:27.000Z,10.7
2023-02-28T15:41:14.000Z,39.5
2023-02-28T15:44:47.000Z,36.9
2023-02-28T15:48:20.000Z,19.9
2023-02-28T15:51:52.000Z,11.2
2023-02-28T15:55:25.000Z,11.5
2023-02-28T15:58:16.000Z,11.7
2023-02-28T16:01:49.000Z,12.8
2023-02-28T16:05:22.000Z,9.5
2023-02-28T16:08:54.000Z,9.8
2023-02-28T16:12:27.000Z,9.9
2023-02-28T16:16:00.000Z,10.3
2023-02-28T16:19:32.000Z,11.9
2023-02-28T16:23:05.000Z,13.3
2023-02-28T16:26:38.000Z,12.2
2023-02-28T16:30:11.000Z,11.2
2023-02-28T16:33:43.000Z,11.5
2023-02-28T16:36:34.000Z,12.9
2023-02-28T16:40:07.000Z,10.4
2023-02-28T16:43:40.000Z,17.6
2023-02-28T16:47:12.000Z,21.1
2023-02-28T16:50:45.000Z,14.9
2023-02-28T16:54:18.000Z,16.4
2023-02-28T16:57:50.000Z,12.8
2023-02-28T17:01:23.000Z,12.3
2023-02-28T17:04:57.000Z,13.9
2023-02-28T17:08:30.000Z,14.3
2023-02-28T17:12:03.000Z,18.1
2023-02-28T17:14:54.000Z,16.4
2023-02-28T17:18:27.000Z,15.2
2023-02-28T17:22:00.000Z,12.9
2023-02-28T17:25:33.000Z,14.7
2023-02-28T17:29:05.000Z,19.6
2023-02-28T17:32:38.000Z,24
2023-02-28T17:36:11.000Z,22.2
2023-02-28T17:39:43.000Z,18.1
2023-02-28T17:43:16.000Z,19.6
2023-02-28T17:46:48.000Z,16.3
2023-02-28T17:50:21.000Z,15.8
2023-02-28T17:53:12.000Z,14.3
2023-02-28T17:56:45.000Z,14.3
2023-02-28T18:00:18.000Z,13.4
2023-02-28T18:03:51.000Z,13.6
2023-02-28T18:07:23.000Z,15.1
2023-02-28T18:10:55.000Z,17.2
2023-02-28T18:14:24.000Z,20.3
2023-02-28T18:17:53.000Z,19.8
2023-02-28T18:21:21.000Z,18.7
2023-02-28T18:24:50.000Z,20.3
2023-02-28T18:28:19.000Z,16.5
2023-02-28T18:31:08.000Z,26
2023-02-28T18:34:37.000Z,22.4
2023-02-28T18:38:05.000Z,21.2
2023-02-28T18:41:33.000Z,19.1
2023-02-28T18:45:01.000Z,20.8
2023-02-28T18:48:29.000Z,19.3
2023-02-28T18:51:58.000Z,16.3
2023-02-28T18:55:26.000Z,21.4
2023-02-28T18:58:54.000Z,19.6
2023-02-28T19:02:22.000Z,21.8
2023-02-28T19:05:50.000Z,16.5
2023-02-28T19:08:39.000Z,16.6
2023-02-28T19:12:07.000Z,15.3
2023-02-28T19:15:35.000Z,24.9
2023-02-28T19:19:03.000Z,20.3
2023-02-28T19:22:31.000Z,22.8
2023-02-28T19:25:59.000Z,24.6
2023-02-28T19:29:27.000Z,27.5
2023-02-28T19:32:55.000Z,24.2
2023-02-28T19:36:23.000Z,22.5
2023-02-28T19:39:51.000Z,20.8
2023-02-28T19:43:19.000Z,20.4
2023-02-28T19:49:33.000Z,20.1
2023-02-28T19:53:01.000Z,17.2
2023-02-28T19:56:29.000Z,18.5
2023-02-28T19:59:57.000Z,18.6
2023-02-28T20:03:25.000Z,18.2
2023-02-28T20:06:57.000Z,16.8
2023-02-28T20:10:25.000Z,19.8
2023-02-28T20:13:52.000Z,17.8
2023-02-28T20:17:20.000Z,19.8
2023-02-28T20:20:48.000Z,19.1
2023-02-28T20:24:16.000Z,19.9
2023-02-28T20:27:05.000Z,23.1
2023-02-28T20:30:33.000Z,19.6
2023-02-28T20:34:01.000Z,16.2
2023-02-28T20:37:29.000Z,18.2
2023-02-28T20:40:57.000Z,16.7
2023-02-28T20:44:25.000Z,17.8
2023-02-28T20:47:53.000Z,16.8
2023-02-28T20:51:21.000Z,17.8
2023-02-28T20:54:49.000Z,17.1
2023-02-28T20:58:17.000Z,17.7
2023-02-28T21:01:45.000Z,18.7
2023-02-28T21:04:34.000Z,18.6
2023-02-28T21:08:02.000Z,16.3
2023-02-28T21:11:30.000Z,16.3
2023-02-28T21:14:57.000Z,19
2023-02-28T21:18:26.000Z,18.6
2023-02-28T21:21:54.000Z,19.5
2023-02-28T21:25:21.000Z,18.9
2023-02-28T21:28:49.000Z,23.5
2023-02-28T21:32:17.000Z,16.3
2023-02-28T21:35:46.000Z,20.4
2023-02-28T21:39:14.000Z,19.3
2023-02-28T21:42:03.000Z,18.1
2023-02-28T21:45:31.000Z,20.5
2023-02-28T21:48:59.000Z,19.9
2023-02-28T21:52:27.000Z,22.3
2023-02-28T21:55:55.000Z,21.1
2023-02-28T21:59:23.000Z,17.6
2023-02-28T22:02:51.000Z,18.7
2023-02-28T22:06:19.000Z,20.5
2023-02-28T22:09:46.000Z,23.2
2023-02-28T22:13:14.000Z,19.7
2023-02-28T22:16:42.000Z,22.9
2023-02-28T22:19:36.000Z,21.9
2023-02-28T22:23:03.000Z,21.4
2023-02-28T22:26:31.000Z,20.8
2023-02-28T22:29:59.000Z,22.7
2023-02-28T22:33:27.000Z,27.2
2023-02-28T22:36:55.000Z,23.1
2023-02-28T22:40:23.000Z,23.2
2023-02-28T22:43:51.000Z,25.3
2023-02-28T22:47:19.000Z,29.6
2023-02-28T22:50:47.000Z,29.9
2023-02-28T22:54:15.000Z,26.8
2023-02-28T22:57:04.000Z,28.4
2023-02-28T23:00:32.000Z,34.1
2023-02-28T23:04:00.000Z,41.5
2023-02-28T23:07:28.000Z,31.9
2023-02-28T23:10:56.000Z,25.9
2023-02-28T23:14:24.000Z,26.5
2023-02-28T23:17:51.000Z,29.3
2023-02-28T23:21:19.000Z,24.2
2023-02-28T23:24:47.000Z,26.9
2023-02-28T23:28:15.000Z,26.3
2023-02-28T23:31:43.000Z,26.1
2023-02-28T23:34:32.000Z,24.8
2023-02-28T23:38:00.000Z,25.2
2023-02-28T23:41:28.000Z,26.1
2023-02-28T23:44:56.000Z,25.9
2023-02-28T23:48:24.000Z,24.5
2023-02-28T23:51:52.000Z,24.3
2023-02-28T23:55:20.000Z,23.8
2023-02-28T23:58:48.000Z,28.2
